Time;durP1;ratioP1;P1;durP2;ratioP2;P2;SDS_P1;SDS_P2;PMS_P1;PMS_P2;Temp;Humidity;BMP_temperature;BMP_pressure;BME280_temperature;BME280_humidity;BME280_pressure;Samples;Min_cycle;Max_cycle;Signal;HPM_P1;HPM_P2
2023/08/19 00:03:35;;;;;;;16.50;13.00;;;;;;;20.07;100.00;100756.36;213358;1293;140705;-80
2023/08/19 00:08:36;;;;;;;15.70;12.40;;;;;;;20.01;100.00;100763.11;213763;1293;139748;-81
2023/08/19 00:13:37;;;;;;;19.90;11.30;;;;;;;19.96;100.00;100768.63;213318;1293;141905;-81
2023/08/19 00:18:37;;;;;;;18.30;13.90;;;;;;;19.93;100.00;100772.38;213854;1291;139405;-80
2023/08/19 00:23:38;;;;;;;18.00;13.30;;;;;;;19.88;100.00;100777.60;213511;1291;141776;-80
2023/08/19 00:28:39;;;;;;;15.00;11.70;;;;;;;19.83;100.00;100776.59;213708;1292;139320;-81
2023/08/19 00:33:39;;;;;;;15.90;12.70;;;;;;;19.79;100.00;100773.86;213860;1293;141310;-81
2023/08/19 00:38:40;;;;;;;17.70;13.40;;;;;;;19.75;100.00;100772.52;214931;1295;140072;-81
2023/08/19 00:43:40;;;;;;;18.20;14.00;;;;;;;19.67;100.00;100769.41;214482;1292;143092;-81
2023/08/19 00:48:40;;;;;;;15.00;11.40;;;;;;;19.61;100.00;100766.42;214919;1290;139447;-80
2023/08/19 00:53:41;;;;;;;15.70;12.20;;;;;;;19.59;100.00;100758.02;214505;1293;141173;-81
2023/08/19 00:58:42;;;;;;;22.20;14.40;;;;;;;19.57;100.00;100751.59;214999;1294;139235;-81
2023/08/19 01:03:42;;;;;;;17.00;13.10;;;;;;;19.55;100.00;100756.34;214375;1289;140696;-81
2023/08/19 01:08:55;;;;;;;19.60;13.60;;;;;;;19.53;100.00;100759.17;215028;1290;139435;-81
2023/08/19 01:14:33;;;;;;;18.60;13.50;;;;;;;19.47;100.00;100752.83;215397;1289;142311;-81
2023/08/19 01:19:36;;;;;;;17.60;13.70;;;;;;;19.43;100.00;100755.94;217160;1290;140672;-81
2023/08/19 01:24:40;;;;;;;18.00;13.40;;;;;;;19.40;100.00;100758.80;216513;1291;139387;-81
2023/08/19 01:29:41;;;;;;;19.50;14.50;;;;;;;19.38;100.00;100758.84;213617;1291;140972;-80
2023/08/19 01:34:42;;;;;;;16.00;13.20;;;;;;;19.35;100.00;100751.08;213775;1293;139172;-80
2023/08/19 01:39:46;;;;;;;20.20;14.60;;;;;;;19.30;100.00;100747.60;211416;1304;141366;-80
2023/08/19 01:44:48;;;;;;;16.30;12.80;;;;;;;19.27;100.00;100740.23;212847;1294;139229;-80
2023/08/19 01:49:48;;;;;;;21.90;16.10;;;;;;;19.24;100.00;100732.15;211461;1293;142207;-80
2023/08/19 01:54:49;;;;;;;19.30;14.80;;;;;;;19.21;100.00;100731.48;212241;1294;140745;-80
2023/08/19 01:59:51;;;;;;;19.80;15.20;;;;;;;19.17;100.00;100719.73;212823;1293;142142;-81
2023/08/19 02:04:51;;;;;;;18.80;15.50;;;;;;;19.15;100.00;100719.70;213907;1293;140221;-80
2023/08/19 02:09:52;;;;;;;22.40;17.00;;;;;;;19.11;100.00;100717.62;213089;1289;142297;-80
2023/08/19 02:14:52;;;;;;;17.80;14.20;;;;;;;19.06;100.00;100714.45;213546;1289;139542;-81
2023/08/19 02:19:53;;;;;;;19.10;14.80;;;;;;;19.02;100.00;100715.17;213001;1293;141988;-81
2023/08/19 02:24:53;;;;;;;20.70;14.60;;;;;;;19.01;100.00;100716.71;213686;1289;139275;-81
2023/08/19 02:29:54;;;;;;;21.00;15.00;;;;;;;18.99;100.00;100706.86;213172;1292;141844;-80
2023/08/19 02:34:54;;;;;;;21.50;15.40;;;;;;;18.97;100.00;100703.02;213568;1292;139632;-81
2023/08/19 02:39:55;;;;;;;21.90;17.20;;;;;;;18.95;100.00;100702.86;213126;1291;141815;-80
2023/08/19 02:44:55;;;;;;;22.70;17.10;;;;;;;18.93;100.00;100703.45;213743;1293;140262;-81
2023/08/19 02:49:55;;;;;;;22.90;17.00;;;;;;;18.90;100.00;100698.42;213163;1293;141415;-80
2023/08/19 02:54:56;;;;;;;25.90;18.80;;;;;;;18.87;100.00;100701.50;213828;1289;139212;-81
2023/08/19 02:59:56;;;;;;;17.10;12.80;;;;;;;18.86;100.00;100703.42;213360;1290;142107;-81
2023/08/19 03:04:57;;;;;;;22.40;17.40;;;;;;;18.85;100.00;100706.48;216990;1290;139230;-81
2023/08/19 03:09:57;;;;;;;20.20;15.00;;;;;;;18.83;100.00;100709.79;217012;1290;140801;-80
2023/08/19 03:14:58;;;;;;;21.20;15.60;;;;;;;18.81;100.00;100710.14;214642;1291;139205;-81
2023/08/19 03:19:58;;;;;;;24.40;18.40;;;;;;;18.80;100.00;100709.20;211331;1292;141519;-81
2023/08/19 03:24:59;;;;;;;22.30;18.10;;;;;;;18.76;100.00;100709.52;211911;1292;139885;-80
2023/08/19 03:29:59;;;;;;;26.60;18.90;;;;;;;18.72;100.00;100713.34;211735;1289;140557;-80
2023/08/19 03:35:00;;;;;;;21.70;16.20;;;;;;;18.67;100.00;100713.81;211915;1291;139320;-81
2023/08/19 03:40:00;;;;;;;26.10;19.50;;;;;;;18.64;100.00;100717.86;211471;1293;140710;-81
2023/08/19 03:45:01;;;;;;;24.90;19.10;;;;;;;18.61;100.00;100717.66;212953;1292;140115;-81
2023/08/19 03:50:01;;;;;;;26.70;18.40;;;;;;;18.57;100.00;100715.58;212914;1292;142304;-81
2023/08/19 03:55:02;;;;;;;27.90;20.90;;;;;;;18.53;100.00;100714.61;213336;1290;139456;-81
2023/08/19 04:00:03;;;;;;;27.40;20.00;;;;;;;18.50;100.00;100717.85;213095;1290;141506;-81
2023/08/19 04:05:05;;;;;;;26.80;20.10;;;;;;;18.49;100.00;100719.70;213454;1290;140224;-81
2023/08/19 04:10:06;;;;;;;26.20;19.70;;;;;;;18.48;100.00;100722.03;212869;1293;140873;-81
2023/08/19 04:15:09;;;;;;;30.30;21.70;;;;;;;18.47;100.00;100721.48;213523;1292;139212;-81
2023/08/19 04:20:10;;;;;;;27.70;20.50;;;;;;;18.47;100.00;100723.47;213028;1289;141240;-81
2023/08/19 04:25:10;;;;;;;29.90;21.30;;;;;;;18.48;100.00;100725.60;213576;1292;139252;-81
2023/08/19 04:30:12;;;;;;;27.60;19.90;;;;;;;18.50;100.00;100724.85;213195;1290;140677;-81
2023/08/19 04:35:13;;;;;;;27.60;19.40;;;;;;;18.52;100.00;100726.41;213470;1290;155137;-81
2023/08/19 04:40:13;;;;;;;30.10;22.60;;;;;;;18.56;100.00;100721.17;212870;1290;142112;-81
2023/08/19 04:45:14;;;;;;;30.50;22.00;;;;;;;18.62;100.00;100722.50;213626;1289;140305;-81
2023/08/19 04:50:14;;;;;;;30.70;22.90;;;;;;;18.71;100.00;100720.35;216043;1289;141558;-81
2023/08/19 04:55:15;;;;;;;33.10;23.10;;;;;;;18.79;100.00;100731.52;217720;1289;139225;-81
2023/08/19 05:00:16;;;;;;;29.30;21.30;;;;;;;18.88;100.00;100735.35;213870;1289;141789;-80
2023/08/19 05:05:16;;;;;;;29.90;23.20;;;;;;;18.96;100.00;100734.02;212262;1291;98405;-80
2023/08/19 05:10:17;;;;;;;35.50;26.50;;;;;;;19.03;100.00;100734.36;211470;1293;142549;-81
2023/08/19 05:15:17;;;;;;;36.30;25.80;;;;;;;19.12;100.00;100736.67;211992;1290;139325;-81
2023/08/19 05:20:18;;;;;;;36.00;27.40;;;;;;;19.19;100.00;100740.42;211665;1293;141396;-80
2023/08/19 05:25:18;;;;;;;34.70;24.80;;;;;;;19.27;100.00;100739.52;212211;1294;139326;-81
2023/08/19 05:30:19;;;;;;;36.70;27.90;;;;;;;19.36;100.00;100741.16;211890;1291;141140;-81
2023/08/19 05:35:20;;;;;;;37.40;28.70;;;;;;;19.49;100.00;100745.14;213520;1290;97993;-81
2023/08/19 05:40:20;;;;;;;34.10;26.20;;;;;;;19.64;100.00;100735.80;213555;1289;141072;-81
2023/08/19 05:45:20;;;;;;;36.70;27.80;;;;;;;19.82;100.00;100740.21;213647;1290;140174;-81
2023/08/19 05:50:21;;;;;;;34.00;27.00;;;;;;;20.08;100.00;100746.42;213110;1290;143027;-80
2023/08/19 05:55:22;;;;;;;32.20;25.10;;;;;;;20.42;100.00;100747.80;213690;1290;139700;-81
2023/08/19 06:00:23;;;;;;;32.50;23.30;;;;;;;20.83;100.00;100749.74;213557;1293;141128;-81
2023/08/19 06:05:23;;;;;;;29.50;22.70;;;;;;;21.22;100.00;100759.27;215694;1290;97974;-80
2023/08/19 06:10:23;;;;;;;31.40;23.80;;;;;;;21.55;100.00;100759.21;214533;1291;141490;-80
2023/08/19 06:15:24;;;;;;;27.50;20.80;;;;;;;21.85;100.00;100756.54;213660;1291;139249;-80
2023/08/19 06:20:24;;;;;;;25.80;19.90;;;;;;;22.10;100.00;100765.23;213217;1291;140228;-81
2023/08/19 06:25:25;;;;;;;23.00;18.30;;;;;;;22.36;100.00;100765.22;213917;1289;139338;-81
2023/08/19 06:30:25;;;;;;;23.60;18.80;;;;;;;22.60;100.00;100768.86;213198;1291;142682;-80
2023/08/19 06:35:26;;;;;;;22.80;17.00;;;;;;;22.81;100.00;100769.42;214165;1293;97792;-81
2023/08/19 06:40:30;;;;;;;19.40;15.40;;;;;;;23.16;100.00;100772.19;216823;1291;141106;-80
2023/08/19 06:45:31;;;;;;;17.30;14.00;;;;;;;23.42;100.00;100774.61;217577;1289;140114;-81
2023/08/19 06:50:32;;;;;;;17.90;14.90;;;;;;;23.69;100.00;100777.50;213341;1290;141760;-80
2023/08/19 06:55:33;;;;;;;16.90;14.00;;;;;;;23.89;100.00;100784.78;212314;1291;140320;-80
2023/08/19 07:00:36;;;;;;;15.00;13.10;;;;;;;23.99;100.00;100784.33;211562;1293;141402;-80
2023/08/19 07:05:36;;;;;;;17.80;13.30;;;;;;;24.10;100.00;100789.39;212119;1293;98011;-80
2023/08/19 07:10:37;;;;;;;14.70;12.30;;;;;;;24.17;100.00;100797.46;211686;1292;141221;-79
2023/08/19 07:15:44;;;;;;;20.30;13.40;;;;;;;24.26;100.00;100800.94;212355;1289;140078;-80
2023/08/19 07:20:45;;;;;;;14.50;11.00;;;;;;;24.33;100.00;100805.48;212446;1291;141639;-80
2023/08/19 07:25:46;;;;;;;13.00;10.50;;;;;;;24.32;99.54;100805.94;213809;1289;139945;-80
2023/08/19 07:30:47;;;;;;;13.00;10.80;;;;;;;24.32;99.81;100806.25;213703;1289;140424;-82
2023/08/19 07:35:47;;;;;;;13.90;9.90;;;;;;;24.39;99.37;100809.36;214166;1291;99294;-80
2023/08/19 07:40:47;;;;;;;13.00;10.10;;;;;;;24.43;97.84;100806.22;213582;1290;141324;-81
2023/08/19 07:45:48;;;;;;;13.20;8.90;;;;;;;24.51;97.04;100812.19;215017;1289;139065;-80
2023/08/19 07:50:48;;;;;;;13.20;9.90;;;;;;;24.63;96.73;100816.86;214921;1290;141261;-81
2023/08/19 07:55:49;;;;;;;15.50;9.90;;;;;;;24.75;95.05;100822.83;215005;1291;140071;-81
2023/08/19 08:00:49;;;;;;;10.90;9.30;;;;;;;24.83;94.30;100827.23;214765;1289;141090;-81
2023/08/19 08:05:49;;;;;;;12.60;9.60;;;;;;;24.92;93.61;100829.41;215316;1291;98217;-80
2023/08/19 08:10:53;;;;;;;12.20;8.80;;;;;;;25.00;91.58;100833.53;214762;1293;140843;-81
2023/08/19 08:15:54;;;;;;;14.30;9.80;;;;;;;25.15;91.86;100830.22;215384;1291;138800;-80
2023/08/19 08:20:54;;;;;;;12.50;10.20;;;;;;;25.35;92.72;100830.34;214563;1291;141002;-81
2023/08/19 08:25:55;;;;;;;13.70;10.10;;;;;;;25.65;92.47;100832.89;215909;1290;139882;-81
2023/08/19 08:30:55;;;;;;;14.50;11.40;;;;;;;26.19;92.28;100840.59;217121;1290;141329;-81
2023/08/19 08:35:55;;;;;;;10.90;9.00;;;;;;;26.87;90.31;100845.80;217328;1289;99076;-81
2023/08/19 08:41:01;;;;;;;11.80;9.10;;;;;;;27.58;86.87;100847.93;213494;1291;142004;-82
2023/08/19 08:46:02;;;;;;;86.10;27.70;;;;;;;28.29;86.38;100846.45;214276;1290;139305;-81
2023/08/19 08:51:04;;;;;;;11.10;7.90;;;;;;;29.16;84.21;100849.96;213735;1290;141067;-81
2023/08/19 08:56:06;;;;;;;10.00;7.70;;;;;;;29.91;78.72;100851.83;214212;1291;138884;-82
2023/08/19 09:01:07;;;;;;;11.00;8.50;;;;;;;30.80;75.37;100852.59;213929;1291;142330;-82
2023/08/19 09:06:14;;;;;;;123.40;49.40;;;;;;;31.73;73.00;100847.55;214097;1290;97960;-82
2023/08/19 09:11:21;;;;;;;9.80;7.60;;;;;;;32.44;71.27;100838.44;213752;1291;141127;-81
2023/08/19 09:16:22;;;;;;;16.00;9.30;;;;;;;33.34;68.51;100836.52;214373;1292;137948;-81
2023/08/19 09:21:24;;;;;;;9.70;8.00;;;;;;;33.73;63.54;100833.46;213553;1293;140452;-81
2023/08/19 09:26:24;;;;;;;11.00;7.50;;;;;;;33.98;60.58;100833.14;214101;1293;138087;-81
2023/08/19 09:31:25;;;;;;;10.40;8.30;;;;;;;34.50;61.15;100829.52;213885;1289;140298;-80
2023/08/19 09:36:26;;;;;;;13.90;8.10;;;;;;;35.15;59.26;100831.48;214702;1290;140012;-80
2023/08/19 09:41:29;;;;;;;9.30;7.80;;;;;;;35.70;56.81;100834.67;214660;1291;141913;-80
2023/08/19 09:46:34;;;;;;;11.00;8.60;;;;;;;35.74;53.95;100829.95;215135;1290;138791;-80
2023/08/19 09:51:34;;;;;;;9.70;8.50;;;;;;;36.04;54.91;100828.05;214531;1290;140317;-80
2023/08/19 09:56:35;;;;;;;10.20;8.60;;;;;;;36.80;53.24;100819.66;214731;1290;277607;-81
2023/08/19 10:01:36;;;;;;;10.40;8.80;;;;;;;37.28;52.75;100821.83;214631;1291;140533;-81
2023/08/19 10:06:39;;;;;;;14.50;8.90;;;;;;;37.76;51.72;100822.70;215674;1289;138592;-81
2023/08/19 10:11:43;;;;;;;11.80;9.30;;;;;;;38.32;49.68;100818.44;215337;1290;140842;-80
2023/08/19 10:16:48;;;;;;;10.90;8.70;;;;;;;38.59;47.40;100817.08;217244;1290;138475;-80
2023/08/19 10:21:51;;;;;;;9.60;8.50;;;;;;;38.78;46.75;100806.46;217258;1290;140625;-80
2023/08/19 10:26:51;;;;;;;11.20;8.10;;;;;;;38.90;45.61;100806.99;215384;1290;138055;-79
2023/08/19 10:31:52;;;;;;;9.10;7.80;;;;;;;38.97;44.43;100807.16;214724;1293;141306;-79
2023/08/19 10:37:08;;;;;;;10.20;7.70;;;;;;;38.96;44.29;100802.55;215331;1290;138127;-79
2023/08/19 10:42:09;;;;;;;10.10;6.90;;;;;;;38.92;42.93;100797.36;214645;1294;141186;-79
2023/08/19 10:47:13;;;;;;;9.90;7.60;;;;;;;38.93;44.08;100796.45;214625;1289;137920;-79
2023/08/19 10:52:20;;;;;;;11.10;7.70;;;;;;;38.95;42.86;100796.02;213490;1293;140202;-80
2023/08/19 10:57:23;;;;;;;10.10;7.40;;;;;;;38.83;41.87;100787.73;213606;1293;138686;-80
2023/08/19 11:02:25;;;;;;;7.30;6.10;;;;;;;38.92;40.82;100785.60;213311;1293;139819;-79
2023/08/19 11:07:26;;;;;;;10.10;7.30;;;;;;;38.73;40.29;100785.73;213841;1290;141426;-80
2023/08/19 11:12:27;;;;;;;9.00;7.60;;;;;;;38.46;39.92;100784.59;213223;1290;141094;-79
2023/08/19 11:17:31;;;;;;;9.70;7.50;;;;;;;38.34;41.31;100784.33;214133;1290;98004;-79
2023/08/19 11:22:40;;;;;;;9.50;8.00;;;;;;;38.51;41.14;100777.77;213743;1290;140042;-79
2023/08/19 11:27:41;;;;;;;10.20;7.70;;;;;;;38.42;40.52;100771.06;214734;1289;138167;-80
2023/08/19 11:32:46;;;;;;;9.20;7.30;;;;;;;38.31;41.10;100772.86;214578;1290;140862;-80
2023/08/19 11:37:47;;;;;;;8.90;6.80;;;;;;;38.42;40.90;100770.75;215786;1290;139228;-79
2023/08/19 11:42:47;;;;;;;10.10;7.30;;;;;;;38.30;42.11;100772.77;214692;1289;140588;-80
2023/08/19 11:47:48;;;;;;;10.30;7.80;;;;;;;38.44;41.68;100775.45;214964;1291;97935;-80
2023/08/19 11:52:49;;;;;;;10.90;7.70;;;;;;;38.37;40.62;100771.22;214388;1290;139579;-80
2023/08/19 11:57:52;;;;;;;9.10;7.50;;;;;;;38.39;41.50;100764.77;214877;1290;138724;-80
2023/08/19 12:02:53;;;;;;;9.80;8.30;;;;;;;38.34;40.63;100764.52;215148;1291;139718;-79
2023/08/19 12:07:53;;;;;;;9.30;7.90;;;;;;;38.02;39.84;100766.98;217744;1290;138160;-83
2023/08/19 12:13:03;;;;;;;9.50;7.80;;;;;;;38.10;40.29;100767.75;214821;1293;206183;-81
2023/08/19 12:18:17;;;;;;;10.90;8.50;;;;;;;38.09;39.65;100763.30;213930;1293;97901;-81
2023/08/19 12:23:18;;;;;;;10.90;8.30;;;;;;;37.95;40.28;100760.48;213413;1291;140889;-80
2023/08/19 12:28:19;;;;;;;10.30;7.90;;;;;;;37.60;40.99;100754.80;214233;1291;138292;-80
2023/08/19 12:33:21;;;;;;;9.80;8.00;;;;;;;37.47;40.36;100754.17;213456;1291;139180;-82
2023/08/19 12:38:21;;;;;;;12.30;8.40;;;;;;;37.24;42.49;100750.05;213813;1291;138859;-82
2023/08/19 12:43:22;;;;;;;10.80;8.10;;;;;;;37.29;42.13;100748.63;213609;1290;140329;-83
2023/08/19 12:48:23;;;;;;;8.90;7.60;;;;;;;37.30;43.69;100745.98;214049;1290;138585;-80
2023/08/19 12:53:23;;;;;;;13.60;9.30;;;;;;;37.49;44.31;100745.16;213509;1291;143643;-81
2023/08/19 12:58:24;;;;;;;9.00;7.90;;;;;;;37.60;42.43;100743.83;214155;1293;138315;-82
2023/08/19 13:03:24;;;;;;;9.30;7.80;;;;;;;37.48;42.29;100744.88;213798;1290;139592;-82
2023/08/19 13:08:25;;;;;;;9.70;8.50;;;;;;;37.29;41.62;100738.44;214821;1291;138359;-82
2023/08/19 13:13:25;;;;;;;12.00;8.10;;;;;;;37.10;40.90;100742.34;214745;1292;140485;-82
2023/08/19 13:18:26;;;;;;;11.70;8.20;;;;;;;36.83;39.82;100739.80;215457;1291;140157;-82
2023/08/19 13:23:26;;;;;;;11.80;8.20;;;;;;;36.53;40.74;100740.46;214599;1290;140953;-82
2023/08/19 13:28:28;;;;;;;10.30;8.60;;;;;;;36.51;42.05;100737.21;214988;1290;138104;-82
2023/08/19 13:33:29;;;;;;;10.30;7.80;;;;;;;36.32;42.10;100736.06;214718;1291;139482;-82
2023/08/19 13:38:30;;;;;;;11.80;8.80;;;;;;;36.23;44.53;100741.10;215085;1289;138607;-82
2023/08/19 13:43:31;;;;;;;10.30;8.30;;;;;;;36.11;42.86;100740.73;214572;1290;140813;-81
2023/08/19 13:48:31;;;;;;;10.40;7.90;;;;;;;35.88;41.83;100739.27;215883;1289;138360;-82
2023/08/19 13:53:31;;;;;;;9.60;8.10;;;;;;;35.44;41.79;100735.16;217203;1290;140046;-81
2023/08/19 13:58:32;;;;;;;9.90;8.20;;;;;;;35.46;44.45;100726.60;217483;1290;138024;-79
2023/08/19 14:03:32;;;;;;;10.00;8.10;;;;;;;35.64;45.73;100722.69;213988;1293;140954;-81
2023/08/19 14:08:36;;;;;;;8.20;7.10;;;;;;;35.62;46.53;100719.59;213998;1291;138311;-80
2023/08/19 14:13:36;;;;;;;10.90;7.90;;;;;;;35.53;45.69;100714.46;213127;1291;140645;-80
2023/08/19 14:18:37;;;;;;;11.60;8.90;;;;;;;35.14;43.21;100714.77;213685;1293;138268;-79
2023/08/19 14:23:38;;;;;;;11.30;8.50;;;;;;;34.28;45.72;100708.05;211972;1294;139670;-80
2023/08/19 14:28:38;;;;;;;11.80;9.80;;;;;;;34.23;47.80;100711.48;212858;1291;137961;-81
2023/08/19 14:33:41;;;;;;;10.20;9.10;;;;;;;34.47;48.04;100708.98;213095;1291;141024;-81
2023/08/19 14:38:41;;;;;;;13.10;9.90;;;;;;;34.55;47.37;100702.30;213653;1292;138275;-83
2023/08/19 14:43:42;;;;;;;11.50;9.10;;;;;;;34.34;46.18;100704.38;213279;1290;141643;-80
2023/08/19 14:48:42;;;;;;;11.30;9.50;;;;;;;34.05;47.12;100702.30;214041;1291;139588;-81
2023/08/19 14:53:43;;;;;;;12.80;10.00;;;;;;;33.95;48.51;100699.21;213601;1293;140882;-81
2023/08/19 14:58:43;;;;;;;10.50;9.20;;;;;;;33.77;47.67;100701.46;214557;1293;138349;-81
2023/08/19 15:03:44;;;;;;;9.80;8.50;;;;;;;33.59;50.10;100703.92;214707;1290;140367;-80
2023/08/19 15:08:44;;;;;;;9.90;8.90;;;;;;;33.48;50.14;100703.06;215279;1291;138259;-81
2023/08/19 15:13:45;;;;;;;11.50;9.40;;;;;;;33.22;50.31;100709.31;214680;1291;140313;-81
2023/08/19 15:18:45;;;;;;;12.40;9.00;;;;;;;33.09;50.38;100704.86;214782;1291;138767;-81
2023/08/19 15:23:46;;;;;;;10.40;9.20;;;;;;;32.70;50.83;100702.23;214750;1293;140855;-81
2023/08/19 15:28:46;;;;;;;11.80;9.80;;;;;;;32.62;51.08;100702.71;214949;1291;138260;-81
2023/08/19 15:33:47;;;;;;;10.80;9.10;;;;;;;32.52;50.93;100703.69;214545;1291;140359;-81
2023/08/19 15:38:47;;;;;;;13.30;8.80;;;;;;;32.31;51.17;100699.30;216523;1291;138975;-82
2023/08/19 15:43:48;;;;;;;10.80;8.80;;;;;;;32.04;50.72;100707.77;217147;1290;141531;-81
2023/08/19 15:48:48;;;;;;;11.90;8.80;;;;;;;31.87;51.74;100708.73;216713;1290;138107;-82
2023/08/19 15:53:48;;;;;;;10.40;7.80;;;;;;;31.76;51.81;100708.41;213830;1294;139660;-82
2023/08/19 15:58:49;;;;;;;11.20;9.20;;;;;;;31.65;52.65;100707.50;214079;1291;138111;-82
2023/08/19 16:03:50;;;;;;;14.30;9.70;;;;;;;31.45;53.31;100715.62;213514;1293;141699;-82
2023/08/19 16:08:50;;;;;;;11.30;9.30;;;;;;;31.26;53.40;100721.46;214083;1291;138256;-82
2023/08/19 16:13:51;;;;;;;12.60;9.40;;;;;;;31.05;53.38;100723.64;213785;1293;139907;-82
2023/08/19 16:18:51;;;;;;;11.60;9.00;;;;;;;30.94;53.86;100718.99;214627;1291;138759;-81
2023/08/19 16:23:52;;;;;;;15.40;10.20;;;;;;;30.82;54.50;100717.33;213702;1293;140177;-82
2023/08/19 16:28:52;;;;;;;11.00;8.80;;;;;;;30.61;54.32;100722.05;214012;1292;138863;-81
2023/08/19 16:33:54;;;;;;;12.20;8.80;;;;;;;30.47;55.64;100729.70;213541;1291;141001;-81
2023/08/19 16:38:54;;;;;;;10.70;8.80;;;;;;;30.33;56.41;100728.94;214113;1291;138230;-81
2023/08/19 16:43:55;;;;;;;10.30;8.40;;;;;;;30.17;57.09;100729.89;213891;1293;140403;-82
2023/08/19 16:48:55;;;;;;;11.70;8.70;;;;;;;30.00;57.54;100728.63;214867;1293;138552;-81
2023/08/19 16:53:57;;;;;;;11.80;9.10;;;;;;;29.85;58.21;100730.56;214654;1293;140170;-81
2023/08/19 16:58:58;;;;;;;10.90;9.30;;;;;;;29.74;58.66;100729.58;215297;1291;138026;-81
2023/08/19 17:03:58;;;;;;;9.70;8.30;;;;;;;29.64;58.92;100728.86;215727;1292;141469;-81
2023/08/19 17:09:00;;;;;;;13.60;8.90;;;;;;;29.49;59.38;100728.27;215501;1291;141898;-81
2023/08/19 17:14:00;;;;;;;10.20;8.30;;;;;;;29.36;59.76;100732.34;215881;1291;138630;-81
2023/08/19 17:19:01;;;;;;;11.10;8.80;;;;;;;29.17;59.76;100735.38;215114;1293;141551;-80
2023/08/19 17:24:02;;;;;;;10.80;9.30;;;;;;;29.02;60.58;100736.52;215723;1292;97894;-81
2023/08/19 17:29:02;;;;;;;10.70;8.00;;;;;;;28.91;61.59;100737.33;216865;1289;141389;-81
2023/08/19 17:34:03;;;;;;;10.60;8.80;;;;;;;28.78;61.98;100733.91;217601;1291;138597;-80
2023/08/19 17:39:05;;;;;;;14.00;9.30;;;;;;;28.62;62.83;100735.08;214995;1291;141412;-82
2023/08/19 17:44:07;;;;;;;14.30;9.00;;;;;;;28.40;63.80;100738.33;214158;1293;138185;-82
2023/08/19 17:49:08;;;;;;;11.30;9.80;;;;;;;28.18;64.73;100733.84;213647;1293;141109;-81
2023/08/19 17:54:10;;;;;;;12.70;9.60;;;;;;;27.97;65.71;100735.59;214192;1293;98036;-82
2023/08/19 17:59:11;;;;;;;14.70;10.50;;;;;;;27.73;66.92;100739.64;213960;1290;140642;-82
2023/08/19 18:04:12;;;;;;;13.10;9.40;;;;;;;27.51;67.99;100742.14;214478;1291;139080;-82
2023/08/19 18:09:15;;;;;;;14.40;9.40;;;;;;;27.31;68.65;100744.10;213490;1292;140005;-82
2023/08/19 18:14:17;;;;;;;13.30;9.30;;;;;;;27.09;69.38;100749.90;214027;1290;138768;-82
2023/08/19 18:19:30;;;;;;;12.70;10.60;;;;;;;26.85;70.05;100758.08;213342;1294;140463;-82
2023/08/19 18:24:33;;;;;;;14.00;10.20;;;;;;;26.63;71.07;100759.86;214084;1293;139361;-82
2023/08/19 18:29:34;;;;;;;15.50;9.80;;;;;;;26.44;72.21;100766.92;213552;1293;140831;-83
2023/08/19 18:34:35;;;;;;;15.50;11.50;;;;;;;26.24;72.98;100770.70;214119;1293;138263;-83
2023/08/19 18:39:36;;;;;;;17.60;12.20;;;;;;;26.06;74.47;100769.98;214406;1292;141865;-82
2023/08/19 18:44:36;;;;;;;13.30;11.00;;;;;;;25.89;75.49;100773.88;214871;1293;139050;-82
2023/08/19 18:49:37;;;;;;;19.60;14.00;;;;;;;25.72;76.94;100783.67;214461;1293;141616;-82
2023/08/19 18:54:37;;;;;;;20.30;15.40;;;;;;;25.51;78.27;100790.83;215140;1292;140343;-83
2023/08/19 18:59:38;;;;;;;19.10;16.80;;;;;;;25.34;79.51;100788.29;214655;1294;141465;-83
2023/08/19 19:04:38;;;;;;;22.10;15.70;;;;;;;25.20;80.16;100794.77;215207;1291;138986;-83
2023/08/19 19:09:39;;;;;;;22.50;17.00;;;;;;;25.06;80.68;100790.42;214447;1295;140724;-83
2023/08/19 19:14:39;;;;;;;24.50;18.00;;;;;;;24.93;81.84;100796.38;215642;1292;139163;-82
2023/08/19 19:19:40;;;;;;;23.90;17.80;;;;;;;24.77;82.65;100802.12;217092;1292;141237;-83
2023/08/19 19:24:40;;;;;;;21.10;15.30;;;;;;;24.62;83.32;100800.17;217588;1291;139110;-82
2023/08/19 19:29:40;;;;;;;21.70;16.90;;;;;;;24.53;83.09;100803.10;213954;1289;141414;-82
2023/08/19 19:34:41;;;;;;;19.70;16.00;;;;;;;24.40;84.54;100805.70;213977;1294;139853;-81
2023/08/19 19:39:42;;;;;;;25.20;16.90;;;;;;;24.23;85.17;100808.71;213638;1293;140971;-82
2023/08/19 19:44:44;;;;;;;23.50;17.10;;;;;;;24.07;85.63;100807.31;213837;1294;139066;-82
2023/08/19 19:49:45;;;;;;;19.90;15.70;;;;;;;23.97;85.85;100807.71;213315;1289;140611;-81
2023/08/19 19:54:46;;;;;;;21.20;16.50;;;;;;;23.87;86.41;100809.52;214130;1289;139118;-81
2023/08/19 19:59:47;;;;;;;20.90;15.80;;;;;;;23.72;87.21;100807.25;213342;1289;142439;-82
2023/08/19 20:04:48;;;;;;;18.80;15.20;;;;;;;23.62;87.30;100807.86;213705;1295;138881;-81
2023/08/19 20:09:49;;;;;;;20.20;16.10;;;;;;;23.55;87.78;100809.58;213232;1294;141897;-82
2023/08/19 20:14:49;;;;;;;21.00;15.10;;;;;;;23.40;88.49;100812.67;213759;1292;139092;-82
2023/08/19 20:19:50;;;;;;;20.20;15.00;;;;;;;23.28;89.10;100816.08;213540;1290;141081;-82
2023/08/19 20:24:50;;;;;;;17.80;14.20;;;;;;;23.21;88.58;100824.42;214743;1293;139746;-82
2023/08/19 20:29:51;;;;;;;21.50;15.80;;;;;;;23.19;89.09;100821.75;214521;1291;140212;-82
2023/08/19 20:34:52;;;;;;;17.30;14.80;;;;;;;23.08;90.42;100817.60;214999;1289;138927;-82
2023/08/19 20:39:52;;;;;;;18.10;14.80;;;;;;;22.99;90.72;100819.55;214476;1294;141495;-82
2023/08/19 20:44:53;;;;;;;24.70;15.80;;;;;;;22.89;92.04;100819.69;214834;1291;139103;-82
2023/08/19 20:49:53;;;;;;;21.00;15.50;;;;;;;22.78;92.89;100818.84;214290;1291;141037;-82
2023/08/19 20:54:54;;;;;;;16.50;12.90;;;;;;;22.70;92.49;100821.05;214897;1291;139119;-82
2023/08/19 20:59:54;;;;;;;19.70;15.20;;;;;;;22.66;92.04;100817.80;214546;1293;142041;-82
2023/08/19 21:04:54;;;;;;;16.00;13.50;;;;;;;22.59;92.63;100812.66;216335;1291;139493;-82
2023/08/19 21:09:55;;;;;;;16.00;13.60;;;;;;;22.53;93.21;100815.58;217159;1290;139844;-82
2023/08/19 21:14:56;;;;;;;17.40;13.80;;;;;;;22.43;94.06;100814.27;216634;1293;139471;-82
2023/08/19 21:19:56;;;;;;;16.80;12.70;;;;;;;22.35;94.28;100814.70;213498;1293;142003;-82
2023/08/19 21:24:57;;;;;;;18.20;14.50;;;;;;;22.29;94.27;100810.55;214196;1290;139270;-81
2023/08/19 21:29:57;;;;;;;17.60;14.30;;;;;;;22.22;94.87;100811.96;214022;1288;141920;-81
2023/08/19 21:34:58;;;;;;;20.90;14.80;;;;;;;22.11;95.32;100820.54;214271;1293;139103;-82
2023/08/19 21:39:58;;;;;;;17.20;14.30;;;;;;;22.00;95.87;100814.06;213304;1290;141874;-82
2023/08/19 21:44:58;;;;;;;16.90;13.70;;;;;;;21.93;95.42;100808.02;213792;1291;140748;-82
2023/08/19 21:49:59;;;;;;;17.30;12.80;;;;;;;21.88;95.43;100808.16;213222;1291;141726;-82
2023/08/19 21:54:59;;;;;;;15.60;13.10;;;;;;;21.84;94.95;100803.78;213476;1291;292430;-81
2023/08/19 22:00:00;;;;;;;17.10;12.90;;;;;;;21.79;96.08;100803.95;213334;1291;141460;-82
2023/08/19 22:05:00;;;;;;;16.40;12.70;;;;;;;21.71;95.88;100799.79;213835;1293;139167;-82
2023/08/19 22:10:01;;;;;;;19.00;13.40;;;;;;;21.69;95.78;100798.07;213481;1291;141024;-82
2023/08/19 22:15:02;;;;;;;16.60;13.50;;;;;;;21.64;97.01;100796.27;214412;1291;139032;-82
2023/08/19 22:20:05;;;;;;;16.70;13.80;;;;;;;21.53;97.77;100798.25;214450;1290;141758;-81
2023/08/19 22:25:06;;;;;;;20.10;14.50;;;;;;;21.44;98.23;100794.89;214953;1290;139388;-82